createdAt,value
2019-02-21T00:00:49.713Z,8.10
2019-02-21T00:02:53.973Z,20.00
2019-02-21T00:04:58.634Z,25.10
2019-02-21T00:07:04.487Z,18.30
2019-02-21T00:09:09.689Z,19.43
2019-02-21T00:11:14.563Z,14.97
2019-02-21T00:13:18.655Z,14.33
2019-02-21T00:15:22.503Z,9.73
2019-02-21T00:17:27.263Z,9.87
2019-02-21T00:19:31.678Z,14.83
2019-02-21T00:21:36.290Z,18.43
2019-02-21T00:23:41.155Z,21.00
2019-02-21T00:25:45.336Z,12.47
2019-02-21T00:27:49.740Z,16.43
2019-02-21T00:29:53.867Z,14.00
2019-02-21T00:31:58.708Z,11.50
2019-02-21T00:34:03.079Z,16.57
2019-02-21T00:36:08.394Z,15.77
2019-02-21T00:38:12.915Z,14.73
2019-02-21T00:40:17.480Z,15.50
2019-02-21T00:42:21.956Z,12.83
2019-02-21T00:44:26.686Z,18.67
2019-02-21T00:46:30.640Z,17.97
2019-02-21T00:48:35.603Z,24.00
2019-02-21T00:50:39.555Z,11.40
2019-02-21T00:52:43.859Z,18.83
2019-02-21T00:54:48.568Z,21.67
2019-02-21T00:56:52.499Z,22.10
2019-02-21T00:58:56.928Z,17.83
2019-02-21T01:01:00.841Z,26.93
2019-02-21T01:03:05.874Z,11.67
2019-02-21T01:05:10.421Z,21.27
2019-02-21T01:07:14.271Z,14.87
2019-02-21T01:09:18.491Z,27.43
2019-02-21T01:11:24.655Z,15.07
2019-02-21T01:13:30.517Z,17.23
2019-02-21T01:15:35.716Z,16.13
2019-02-21T01:17:40.129Z,16.70
2019-02-21T01:19:44.648Z,5.93
2019-02-21T01:21:50.085Z,14.20
2019-02-21T01:23:54.347Z,15.80
2019-02-21T01:25:59.053Z,17.40
2019-02-21T01:28:04.155Z,16.83
2019-02-21T01:30:08.489Z,16.80
2019-02-21T01:32:12.597Z,20.93
2019-02-21T01:34:16.604Z,22.53
2019-02-21T01:36:21.743Z,22.07
2019-02-21T01:38:25.587Z,17.47
2019-02-21T01:40:30.391Z,24.33
2019-02-21T01:42:34.393Z,14.50
2019-02-21T01:44:38.242Z,16.40
2019-02-21T01:46:42.175Z,17.77
2019-02-21T01:48:46.110Z,25.67
2019-02-21T01:50:50.588Z,18.17
2019-02-21T01:52:55.012Z,15.50
2019-02-21T01:54:59.391Z,26.17
2019-02-21T01:57:03.587Z,20.90
2019-02-21T01:59:08.679Z,14.13
2019-02-21T02:01:13.155Z,23.10
2019-02-21T02:03:17.339Z,31.50
2019-02-21T02:05:21.723Z,16.03
2019-02-21T02:07:26.430Z,12.60
2019-02-21T02:09:31.608Z,20.97
2019-02-21T02:11:36.415Z,21.40
2019-02-21T02:13:41.015Z,18.93
2019-02-21T02:15:45.587Z,13.17
2019-02-21T02:17:49.457Z,12.67
2019-02-21T02:19:54.272Z,14.07
2019-02-21T02:21:59.126Z,18.80
2019-02-21T02:24:04.135Z,20.60
2019-02-21T02:26:08.139Z,19.90
2019-02-21T02:28:12.573Z,33.83
2019-02-21T02:30:16.846Z,12.83
2019-02-21T02:32:20.887Z,17.03
2019-02-21T02:34:24.998Z,16.70
2019-02-21T02:36:29.097Z,15.10
2019-02-21T02:38:33.636Z,18.97
2019-02-21T02:40:38.814Z,23.87
2019-02-21T02:42:42.971Z,22.93
2019-02-21T02:44:47.137Z,14.63
2019-02-21T02:46:51.081Z,23.00
2019-02-21T02:48:56.088Z,17.07
2019-02-21T02:51:00.894Z,15.20
2019-02-21T02:53:05.303Z,19.83
2019-02-21T02:55:09.905Z,14.60
2019-02-21T02:57:14.508Z,16.87
2019-02-21T02:59:18.732Z,22.70
2019-02-21T03:01:34.393Z,23.20
2019-02-21T03:03:28.560Z,21.73
2019-02-21T03:05:32.911Z,29.03
2019-02-21T03:07:36.830Z,24.87
2019-02-21T03:09:40.926Z,24.67
2019-02-21T03:11:45.438Z,21.00
2019-02-21T03:13:50.011Z,24.77
2019-02-21T03:15:54.524Z,18.40
2019-02-21T03:17:58.652Z,22.03
2019-02-21T03:20:02.567Z,17.90
2019-02-21T03:22:07.274Z,15.97
2019-02-21T03:24:11.359Z,20.43
2019-02-21T03:26:15.796Z,16.00
2019-02-21T03:28:19.908Z,24.63
2019-02-21T03:30:24.639Z,21.07
2019-02-21T03:32:28.523Z,26.70
2019-02-21T03:34:32.749Z,26.93
2019-02-21T03:36:37.342Z,23.03
2019-02-21T03:38:41.840Z,19.87
2019-02-21T03:40:46.591Z,24.13
2019-02-21T03:42:50.981Z,21.60
2019-02-21T03:44:54.858Z,18.37
2019-02-21T03:46:59.027Z,17.57
2019-02-21T03:49:03.390Z,22.93
2019-02-21T03:51:08.012Z,22.30
2019-02-21T03:53:11.945Z,27.47
2019-02-21T03:55:16.155Z,26.13
2019-02-21T03:57:20.953Z,26.93
2019-02-21T03:59:25.648Z,21.23
2019-02-21T04:01:30.171Z,18.60
2019-02-21T04:03:35.728Z,22.90
2019-02-21T04:05:40.011Z,13.43
2019-02-21T04:07:44.399Z,23.07
2019-02-21T04:09:48.896Z,25.40
2019-02-21T04:11:52.827Z,20.33
2019-02-21T04:13:56.760Z,21.30
2019-02-21T04:16:01.077Z,17.40
2019-02-21T04:18:05.640Z,23.03
2019-02-21T04:20:10.704Z,20.40
2019-02-21T04:22:15.504Z,18.60
2019-02-21T04:24:20.475Z,25.40
2019-02-21T04:26:24.600Z,21.43
2019-02-21T04:28:28.779Z,24.30
2019-02-21T04:30:34.111Z,20.13
2019-02-21T04:32:38.299Z,20.50
2019-02-21T04:34:42.161Z,22.90
2019-02-21T04:36:46.815Z,17.83
2019-02-21T04:38:51.516Z,33.53
2019-02-21T04:40:55.619Z,19.50
2019-02-21T04:42:59.732Z,10.97
2019-02-21T04:45:04.327Z,18.90
2019-02-21T04:47:08.752Z,13.90
2019-02-21T04:49:12.586Z,28.80
2019-02-21T04:51:17.111Z,16.93
2019-02-21T04:53:21.361Z,20.43
2019-02-21T04:55:25.699Z,18.37
2019-02-21T04:57:30.224Z,15.20
2019-02-21T04:59:34.709Z,17.70
2019-02-21T05:01:40.403Z,19.37
2019-02-21T05:03:45.472Z,19.33
2019-02-21T05:05:49.627Z,26.33
2019-02-21T05:07:54.679Z,24.30
2019-02-21T05:09:59.719Z,27.30
2019-02-21T05:12:04.727Z,21.10
2019-02-21T05:14:08.675Z,21.50
2019-02-21T05:16:12.716Z,23.40
2019-02-21T05:18:17.033Z,24.93
2019-02-21T05:20:21.571Z,18.57
2019-02-21T05:22:26.329Z,20.67
2019-02-21T05:24:30.814Z,15.30
2019-02-21T05:26:40.196Z,17.73
2019-02-21T05:28:44.609Z,26.53
2019-02-21T05:30:50.758Z,18.77
2019-02-21T05:33:12.040Z,20.20
2019-02-21T05:35:38.141Z,25.97
2019-02-21T05:38:07.823Z,25.07
2019-02-21T05:40:30.468Z,14.37
2019-02-21T05:43:06.804Z,22.50
2019-02-21T05:45:25.467Z,22.50
2019-02-21T05:47:44.379Z,27.53
2019-02-21T05:49:53.794Z,27.77
2019-02-21T05:55:46.156Z,27.57
2019-02-21T05:58:14.213Z,23.83
2019-02-21T06:00:56.830Z,19.80
2019-02-21T06:03:39.380Z,17.47
2019-02-21T06:06:21.541Z,25.40
2019-02-21T06:09:04.633Z,19.77
2019-02-21T06:11:47.255Z,29.30
2019-02-21T06:14:29.932Z,21.10
2019-02-21T06:17:12.100Z,14.00
2019-02-21T06:19:40.683Z,21.30
2019-02-21T06:22:10.613Z,20.67
2019-02-21T06:29:39.514Z,19.73
2019-02-21T06:31:55.699Z,23.40
2019-02-21T06:34:11.476Z,17.50
2019-02-21T06:36:27.432Z,21.60
2019-02-21T06:38:42.891Z,21.47
2019-02-21T06:40:59.134Z,27.70
2019-02-21T06:43:15.105Z,28.93
2019-02-21T06:45:30.967Z,35.43
2019-02-21T06:47:47.033Z,26.00
2019-02-21T06:50:03.102Z,21.13
2019-02-21T06:52:19.957Z,18.53
2019-02-21T06:54:36.125Z,22.03
2019-02-21T06:56:51.989Z,23.67
2019-02-21T06:59:08.414Z,19.10
2019-02-21T07:01:29.168Z,24.10
2019-02-21T07:03:43.080Z,17.13
2019-02-21T07:05:59.027Z,19.70
2019-02-21T07:08:14.498Z,19.73
2019-02-21T07:10:28.940Z,24.40
2019-02-21T07:12:52.595Z,19.70
2019-02-21T07:15:16.182Z,22.93
2019-02-21T07:17:48.918Z,22.63
2019-02-21T07:22:31.569Z,19.47
2019-02-21T07:24:49.566Z,23.83
2019-02-21T07:27:05.255Z,26.00
2019-02-21T07:29:21.325Z,28.10
2019-02-21T07:31:37.943Z,22.60
2019-02-21T07:33:53.299Z,26.27
2019-02-21T07:36:07.549Z,22.63
2019-02-21T07:38:31.611Z,24.80
2019-02-21T07:40:56.013Z,22.77
2019-02-21T07:46:06.945Z,24.40
2019-02-21T07:48:30.359Z,14.67
2019-02-21T07:50:53.412Z,30.17
2019-02-21T07:53:16.955Z,24.90
2019-02-21T07:58:24.854Z,21.63
2019-02-21T08:00:48.187Z,18.97
2019-02-21T08:03:11.260Z,21.53
2019-02-21T08:05:34.827Z,21.57
2019-02-21T08:13:11.464Z,22.53
2019-02-21T08:15:34.606Z,16.80
2019-02-21T08:20:20.788Z,16.90
2019-02-21T08:22:37.115Z,26.97
2019-02-21T08:24:53.080Z,25.40
2019-02-21T08:27:08.780Z,16.70
2019-02-21T08:29:25.511Z,24.00
2019-02-21T08:31:41.784Z,26.83
2019-02-21T08:34:00.970Z,22.33
2019-02-21T08:36:16.547Z,28.57
2019-02-21T08:38:32.352Z,18.97
2019-02-21T08:40:47.828Z,31.43
2019-02-21T08:43:04.186Z,22.23
2019-02-21T08:45:19.749Z,27.83
2019-02-21T08:47:36.827Z,32.97
2019-02-21T08:49:53.039Z,18.33
2019-02-21T08:52:08.440Z,17.83
2019-02-21T08:54:24.676Z,24.87
2019-02-21T08:56:40.491Z,26.13
2019-02-21T08:58:55.894Z,28.63
2019-02-21T09:01:11.470Z,19.37
2019-02-21T09:03:26.979Z,31.70
2019-02-21T09:05:42.539Z,25.00
2019-02-21T09:07:58.398Z,16.97
2019-02-21T09:10:14.615Z,23.97
2019-02-21T09:12:31.211Z,19.07
2019-02-21T09:14:47.162Z,22.40
2019-02-21T09:17:03.418Z,22.87
2019-02-21T09:19:19.479Z,22.50
2019-02-21T09:21:35.846Z,26.20
2019-02-21T09:23:52.056Z,17.77
2019-02-21T09:26:07.621Z,23.40
2019-02-21T09:28:23.914Z,22.93
2019-02-21T09:30:39.517Z,25.57
2019-02-21T09:32:56.115Z,25.30
2019-02-21T09:35:12.292Z,18.60
2019-02-21T09:37:27.825Z,30.50
2019-02-21T09:39:44.083Z,25.00
2019-02-21T09:42:00.321Z,22.13
2019-02-21T09:44:18.127Z,26.33
2019-02-21T09:46:33.941Z,30.60
2019-02-21T09:48:49.659Z,27.13
2019-02-21T09:51:07.009Z,19.57
2019-02-21T09:53:23.024Z,30.90
2019-02-21T09:55:39.072Z,20.57
2019-02-21T09:57:55.176Z,21.77
2019-02-21T10:00:11.455Z,23.40
2019-02-21T10:02:27.570Z,26.33
2019-02-21T10:04:42.998Z,25.83
2019-02-21T10:06:58.652Z,25.97
2019-02-21T10:09:14.792Z,22.00
2019-02-21T10:11:30.660Z,24.47
2019-02-21T10:13:46.059Z,26.23
2019-02-21T10:16:04.727Z,25.80
2019-02-21T10:18:20.305Z,15.23
2019-02-21T10:20:36.745Z,15.03
2019-02-21T10:22:52.293Z,21.43
2019-02-21T10:25:08.218Z,20.30
2019-02-21T10:27:24.403Z,21.47
2019-02-21T10:29:40.181Z,26.10
2019-02-21T10:34:14.409Z,39.27
2019-02-21T10:36:29.888Z,28.40
2019-02-21T10:38:45.657Z,25.23
2019-02-21T10:41:02.044Z,20.77
2019-02-21T10:43:18.051Z,30.67
2019-02-21T10:45:34.287Z,23.77
2019-02-21T10:47:51.691Z,18.47
2019-02-21T10:50:07.107Z,26.70
2019-02-21T10:52:22.606Z,20.20
2019-02-21T10:54:37.996Z,19.40
2019-02-21T10:56:53.453Z,15.77
2019-02-21T10:59:08.851Z,29.20
2019-02-21T11:01:24.800Z,23.60
2019-02-21T11:03:41.321Z,25.23
2019-02-21T11:05:56.965Z,27.10
2019-02-21T11:08:13.779Z,21.70
2019-02-21T11:10:29.323Z,23.47
2019-02-21T11:12:43.707Z,33.73
2019-02-21T11:20:40.347Z,22.47
2019-02-21T11:25:40.837Z,26.83
2019-02-21T11:27:56.767Z,27.70
2019-02-21T11:30:12.504Z,27.13
2019-02-21T11:32:28.729Z,26.73
2019-02-21T11:34:44.599Z,29.53
2019-02-21T11:37:00.635Z,20.43
2019-02-21T11:39:16.582Z,26.77
2019-02-21T11:41:32.498Z,27.93
2019-02-21T11:43:48.097Z,33.47
2019-02-21T11:46:04.339Z,19.73
2019-02-21T11:48:20.246Z,24.13
2019-02-21T11:50:35.864Z,17.73
2019-02-21T11:52:52.163Z,28.23
2019-02-21T11:55:08.023Z,25.63
2019-02-21T11:57:22.688Z,25.77
2019-02-21T11:59:46.247Z,28.60
2019-02-21T12:02:09.392Z,33.53
2019-02-21T12:04:32.979Z,25.07
2019-02-21T12:06:56.156Z,27.83
2019-02-21T12:09:19.272Z,26.00
2019-02-21T12:11:42.955Z,25.13
2019-02-21T12:14:06.033Z,29.50
2019-02-21T12:16:29.162Z,31.13
2019-02-21T12:18:52.339Z,35.77
2019-02-21T12:21:17.399Z,31.97
2019-02-21T12:23:40.467Z,32.00
2019-02-21T12:25:56.464Z,27.23
2019-02-21T12:28:10.767Z,32.83
2019-02-21T12:30:34.105Z,31.90
2019-02-21T12:32:57.943Z,29.30
2019-02-21T12:37:51.628Z,22.00
2019-02-21T12:40:35.632Z,31.97
2019-02-21T12:42:58.839Z,27.73
2019-02-21T12:45:22.569Z,34.73
2019-02-21T12:48:05.276Z,34.17
2019-02-21T12:50:28.535Z,36.97
2019-02-21T12:52:51.692Z,26.33
2019-02-21T12:55:26.563Z,29.40
2019-02-21T12:57:39.756Z,25.83
2019-02-21T13:00:02.905Z,33.30
2019-02-21T13:04:56.254Z,25.50
2019-02-21T13:07:21.495Z,24.67
2019-02-21T13:09:44.660Z,30.33
2019-02-21T13:12:08.243Z,36.70
2019-02-21T13:14:32.065Z,39.77
2019-02-21T13:17:14.789Z,29.90
2019-02-21T13:19:37.860Z,30.70
2019-02-21T13:22:01.047Z,35.80
2019-02-21T13:24:24.271Z,38.43
2019-02-21T13:26:40.338Z,26.03
2019-02-21T13:28:58.071Z,40.27
2019-02-21T13:31:13.511Z,37.53
2019-02-21T13:33:29.123Z,26.03
2019-02-21T13:35:52.782Z,22.10
2019-02-21T13:38:03.013Z,25.80
2019-02-21T13:40:21.068Z,36.37
2019-02-21T13:42:36.612Z,32.57
2019-02-21T13:44:52.657Z,29.60
2019-02-21T13:47:08.083Z,39.63
2019-02-21T13:49:24.843Z,26.23
2019-02-21T13:51:41.178Z,32.17
2019-02-21T13:53:57.060Z,29.17
2019-02-21T13:56:13.251Z,39.10
2019-02-21T13:58:28.932Z,30.00
2019-02-21T14:00:45.358Z,23.30
2019-02-21T14:03:01.571Z,40.63
2019-02-21T14:05:19.227Z,30.17
2019-02-21T14:07:37.154Z,40.00
2019-02-21T14:09:53.079Z,29.43
2019-02-21T14:12:08.939Z,31.20
2019-02-21T14:14:24.572Z,28.03
2019-02-21T14:16:46.617Z,20.83
2019-02-21T14:18:58.965Z,28.03
2019-02-21T14:21:14.852Z,27.80
2019-02-21T14:23:30.250Z,25.60
2019-02-21T14:25:46.267Z,15.33
2019-02-21T14:28:02.199Z,29.37
2019-02-21T14:30:17.985Z,18.73
2019-02-21T14:32:33.979Z,36.53
2019-02-21T14:34:49.984Z,26.07
2019-02-21T14:37:05.879Z,29.90
2019-02-21T14:39:21.836Z,31.77
2019-02-21T14:41:38.436Z,36.83
2019-02-21T14:43:54.895Z,31.73
2019-02-21T14:46:10.285Z,24.97
2019-02-21T14:48:26.886Z,28.47
2019-02-21T14:50:43.414Z,26.23
2019-02-21T14:52:58.932Z,37.67
2019-02-21T14:55:14.435Z,34.23
2019-02-21T14:57:40.156Z,22.27
2019-02-21T14:59:46.381Z,38.60
2019-02-21T15:02:09.541Z,40.17
2019-02-21T15:04:32.582Z,40.07
2019-02-21T15:06:56.287Z,36.50
2019-02-21T15:09:19.822Z,46.03
2019-02-21T15:11:42.896Z,48.27
2019-02-21T15:14:06.087Z,24.03
2019-02-21T15:16:30.217Z,28.87
2019-02-21T15:18:55.331Z,30.20
2019-02-21T15:21:19.249Z,31.03
2019-02-21T15:26:11.019Z,29.77
2019-02-21T15:28:35.112Z,45.60
2019-02-21T15:30:58.511Z,33.07
2019-02-21T15:36:05.639Z,28.10
2019-02-21T15:41:32.439Z,31.70
2019-02-21T15:46:25.514Z,31.13
2019-02-21T15:48:48.944Z,19.73
2019-02-21T15:51:13.706Z,27.57
2019-02-21T15:53:37.036Z,32.30
2019-02-21T15:58:29.211Z,32.73
2019-02-21T16:00:52.275Z,35.57
2019-02-21T16:05:45.986Z,31.67
2019-02-21T16:08:09.129Z,27.20
2019-02-21T16:10:33.211Z,31.10
2019-02-21T16:12:57.052Z,18.50
2019-02-21T16:15:21.453Z,14.80
2019-02-21T16:20:14.127Z,24.90
2019-02-21T16:22:37.971Z,19.73
2019-02-21T16:25:01.168Z,35.97
2019-02-21T16:27:24.502Z,30.57
2019-02-21T16:29:40.218Z,32.57
2019-02-21T16:31:55.753Z,19.73
2019-02-21T16:34:11.531Z,31.43
2019-02-21T16:36:27.306Z,31.03
2019-02-21T16:38:43.755Z,28.50
2019-02-21T16:40:59.158Z,25.37
2019-02-21T16:43:14.519Z,27.77
2019-02-21T16:45:42.528Z,26.67
2019-02-21T16:47:48.384Z,24.17
2019-02-21T16:50:04.197Z,22.50
2019-02-21T16:52:19.998Z,15.17
2019-02-21T16:54:36.128Z,11.93
2019-02-21T16:56:52.187Z,16.30
2019-02-21T16:59:08.335Z,21.83
2019-02-21T17:01:24.362Z,14.13
2019-02-21T17:03:40.620Z,11.63
2019-02-21T17:05:57.015Z,22.47
2019-02-21T17:08:12.544Z,16.23
2019-02-21T17:10:28.196Z,18.97
2019-02-21T17:12:44.149Z,14.93
2019-02-21T17:15:00.059Z,15.20
2019-02-21T17:17:16.131Z,14.67
2019-02-21T17:19:31.768Z,15.87
2019-02-21T17:21:47.626Z,17.23
2019-02-21T17:24:03.231Z,11.60
2019-02-21T17:26:19.407Z,12.50
2019-02-21T17:28:35.503Z,17.17
2019-02-21T17:30:52.227Z,16.07
2019-02-21T17:33:08.202Z,11.50
2019-02-21T17:37:41.264Z,14.37
2019-02-21T17:39:58.059Z,8.00
2019-02-21T17:42:13.858Z,14.70
2019-02-21T17:44:31.845Z,12.57
2019-02-21T17:46:48.077Z,11.50
2019-02-21T17:49:04.476Z,8.67
2019-02-21T17:51:19.900Z,15.23
2019-02-21T17:53:35.481Z,13.43
2019-02-21T17:55:51.697Z,14.47
2019-02-21T17:58:08.148Z,15.17
2019-02-21T18:03:07.099Z,16.93
2019-02-21T18:05:22.526Z,10.70
2019-02-21T18:07:38.327Z,25.43
2019-02-21T18:09:54.139Z,16.33
2019-02-21T18:12:10.326Z,24.57
2019-02-21T18:14:26.051Z,15.00
2019-02-21T18:16:43.364Z,15.50
2019-02-21T18:18:58.986Z,18.47
2019-02-21T18:21:14.467Z,29.33
2019-02-21T18:23:30.771Z,11.37
2019-02-21T18:25:47.556Z,21.40
2019-02-21T18:28:03.006Z,27.13
2019-02-21T18:30:18.978Z,22.13
2019-02-21T18:32:34.849Z,26.13
2019-02-21T18:34:51.564Z,18.90
2019-02-21T18:37:07.960Z,23.37
2019-02-21T18:39:24.407Z,26.00
2019-02-21T18:41:40.814Z,24.80
2019-02-21T18:43:57.206Z,25.63
2019-02-21T18:46:13.655Z,11.90
2019-02-21T18:48:29.441Z,14.30
2019-02-21T18:50:45.690Z,16.87
2019-02-21T18:53:01.883Z,24.07
2019-02-21T18:55:17.657Z,23.07
2019-02-21T18:57:34.455Z,23.93
2019-02-21T18:59:51.274Z,16.50
2019-02-21T19:02:07.716Z,23.43
2019-02-21T19:04:24.423Z,16.83
2019-02-21T19:06:40.383Z,18.10
2019-02-21T19:08:56.719Z,21.50
2019-02-21T19:11:12.735Z,16.07
2019-02-21T19:13:29.487Z,16.77
2019-02-21T19:15:44.953Z,19.07
2019-02-21T19:18:01.600Z,17.77
2019-02-21T19:20:17.988Z,20.40
2019-02-21T19:22:35.596Z,14.73
2019-02-21T19:24:52.215Z,21.80
2019-02-21T19:27:08.592Z,14.83
2019-02-21T19:29:24.540Z,17.97
2019-02-21T19:31:40.051Z,11.50
2019-02-21T19:33:56.084Z,20.13
2019-02-21T19:36:12.196Z,24.93
2019-02-21T19:38:28.424Z,17.70
2019-02-21T19:40:44.433Z,20.03
2019-02-21T19:43:00.471Z,19.73
2019-02-21T19:45:16.024Z,16.40
2019-02-21T19:47:34.795Z,16.07
2019-02-21T19:49:51.249Z,28.57
2019-02-21T19:52:08.228Z,16.33
2019-02-21T19:54:24.796Z,15.17
2019-02-21T19:56:43.330Z,28.53
2019-02-21T19:58:59.142Z,21.97
2019-02-21T20:01:16.179Z,30.50
2019-02-21T20:03:31.994Z,30.13
2019-02-21T20:05:48.120Z,29.37
2019-02-21T20:08:08.616Z,24.27
2019-02-21T20:10:20.889Z,22.87
2019-02-21T20:12:37.792Z,27.40
2019-02-21T20:14:53.502Z,19.90
2019-02-21T20:17:10.236Z,19.60
2019-02-21T20:19:25.608Z,34.40
2019-02-21T20:21:44.095Z,23.37
2019-02-21T20:24:01.125Z,21.37
2019-02-21T20:26:18.601Z,26.53
2019-02-21T20:28:34.813Z,25.87
2019-02-21T20:30:51.658Z,24.30
2019-02-21T20:33:08.007Z,29.83
2019-02-21T20:35:24.044Z,23.67
2019-02-21T20:37:40.612Z,29.60
2019-02-21T20:39:57.476Z,26.67
2019-02-21T20:42:13.024Z,29.73
2019-02-21T20:44:29.263Z,20.43
2019-02-21T20:46:45.508Z,25.43
2019-02-21T20:49:01.036Z,37.27
2019-02-21T20:51:17.040Z,36.20
2019-02-21T20:53:32.553Z,29.87
2019-02-21T20:55:48.873Z,30.13
2019-02-21T20:58:04.688Z,44.77
2019-02-21T21:00:20.700Z,39.07
2019-02-21T21:02:38.194Z,32.70
2019-02-21T21:04:54.337Z,29.17
2019-02-21T21:07:13.049Z,34.07
2019-02-21T21:09:29.271Z,48.93
2019-02-21T21:11:45.143Z,36.87
2019-02-21T21:14:01.601Z,39.80
2019-02-21T21:16:16.998Z,45.73
2019-02-21T21:18:32.415Z,36.50
2019-02-21T21:20:48.890Z,55.57
2019-02-21T21:23:04.992Z,55.73
2019-02-21T21:25:21.420Z,55.43
2019-02-21T21:27:37.500Z,52.53
2019-02-21T21:29:53.456Z,56.70
2019-02-21T21:32:09.063Z,38.77
2019-02-21T21:34:25.389Z,43.67
2019-02-21T21:36:41.663Z,54.43
2019-02-21T21:38:59.423Z,29.20
2019-02-21T21:41:15.548Z,50.83
2019-02-21T21:43:31.517Z,56.77
2019-02-21T21:45:47.172Z,33.87
2019-02-21T21:48:03.248Z,29.60
2019-02-21T21:50:18.890Z,52.23
2019-02-21T21:52:36.863Z,37.97
2019-02-21T21:54:52.216Z,54.27
2019-02-21T21:57:08.492Z,50.37
2019-02-21T21:59:24.688Z,54.30
2019-02-21T22:01:41.649Z,54.93
2019-02-21T22:03:57.775Z,31.70
2019-02-21T22:06:13.892Z,44.63
2019-02-21T22:08:29.575Z,51.80
2019-02-21T22:10:45.460Z,45.90
2019-02-21T22:13:00.884Z,58.33
2019-02-21T22:15:16.723Z,49.20
2019-02-21T22:17:32.969Z,58.53
2019-02-21T22:19:49.485Z,51.13
2019-02-21T22:22:05.070Z,50.83
2019-02-21T22:24:21.633Z,31.20
2019-02-21T22:26:37.468Z,47.10
2019-02-21T22:28:53.403Z,55.50
2019-02-21T22:31:09.352Z,50.87
2019-02-21T22:33:26.399Z,69.47
2019-02-21T22:35:42.489Z,33.73
2019-02-21T22:37:58.578Z,49.60
2019-02-21T22:40:14.587Z,70.13
2019-02-21T22:42:30.471Z,69.13
2019-02-21T22:44:46.920Z,77.63
2019-02-21T22:47:02.580Z,65.77
2019-02-21T22:49:18.004Z,55.97
2019-02-21T22:51:33.375Z,69.50
2019-02-21T22:53:49.801Z,66.53
2019-02-21T22:56:05.686Z,63.33
2019-02-21T22:58:21.557Z,70.73
2019-02-21T23:03:13.359Z,56.57
2019-02-21T23:05:29.657Z,80.07
2019-02-21T23:07:45.602Z,70.50
2019-02-21T23:10:01.485Z,75.27
2019-02-21T23:12:17.240Z,61.73
2019-02-21T23:14:33.040Z,68.57
2019-02-21T23:16:48.799Z,40.27
2019-02-21T23:19:04.575Z,74.37
2019-02-21T23:21:20.118Z,72.87
2019-02-21T23:23:35.556Z,63.00
2019-02-21T23:25:51.832Z,76.77
2019-02-21T23:28:08.443Z,56.63
2019-02-21T23:30:24.253Z,58.00
2019-02-21T23:32:40.174Z,57.47
2019-02-21T23:34:58.523Z,57.10
2019-02-21T23:37:14.071Z,75.53
2019-02-21T23:39:37.816Z,56.80
2019-02-21T23:41:47.232Z,67.60
2019-02-21T23:44:03.110Z,76.10
2019-02-21T23:46:19.067Z,66.97
2019-02-21T23:48:35.815Z,39.60
2019-02-21T23:50:51.324Z,39.27
2019-02-21T23:53:07.061Z,59.67
2019-02-21T23:55:23.643Z,39.33
2019-02-21T23:57:39.309Z,74.23
2019-02-21T23:59:55.281Z,64.93
